createdAt,value
2019-01-24T00:00:18.994Z,67.90
2019-01-24T00:02:51.145Z,66.23
2019-01-24T00:05:22.202Z,64.57
2019-01-24T00:07:57.631Z,67.17
2019-01-24T00:10:27.119Z,65.43
2019-01-24T00:12:56.561Z,67.60
2019-01-24T00:15:25.981Z,63.10
2019-01-24T00:17:55.429Z,64.70
2019-01-24T00:20:56.206Z,67.27
2019-01-24T00:23:25.640Z,68.07
2019-01-24T00:26:14.444Z,66.60
2019-01-24T00:28:46.637Z,66.63
2019-01-24T00:31:16.172Z,70.30
2019-01-24T00:33:45.610Z,63.33
2019-01-24T00:36:15.092Z,67.93
2019-01-24T00:38:49.088Z,65.03
2019-01-24T00:41:18.871Z,66.47
2019-01-24T00:43:48.350Z,64.07
2019-01-24T00:46:17.782Z,65.30
2019-01-24T00:48:47.194Z,65.67
2019-01-24T00:51:16.653Z,62.97
2019-01-24T00:53:46.220Z,63.80
2019-01-24T00:56:18.679Z,63.67
2019-01-24T00:58:48.139Z,65.20
2019-01-24T01:01:17.545Z,66.63
2019-01-24T01:03:47.062Z,59.83
2019-01-24T01:06:16.502Z,60.77
2019-01-24T01:08:45.970Z,60.00
2019-01-24T01:11:33.658Z,64.80
2019-01-24T01:14:25.827Z,67.73
2019-01-24T01:17:13.725Z,63.73
2019-01-24T01:19:52.294Z,59.60
2019-01-24T01:22:23.404Z,59.93
2019-01-24T01:25:14.600Z,64.30
2019-01-24T01:28:02.337Z,62.63
2019-01-24T01:30:33.392Z,63.27
2019-01-24T01:33:21.406Z,66.37
2019-01-24T01:36:09.041Z,65.00
2019-01-24T01:38:40.160Z,66.10
2019-01-24T01:41:15.654Z,60.03
2019-01-24T01:43:57.755Z,65.20
2019-01-24T01:46:27.306Z,67.47
2019-01-24T01:49:15.551Z,62.57
2019-01-24T01:51:58.354Z,65.90
2019-01-24T01:54:27.880Z,61.57
2019-01-24T01:56:57.372Z,61.40
2019-01-24T01:59:26.770Z,66.60
2019-01-24T02:01:56.272Z,58.47
2019-01-24T02:04:25.733Z,62.60
2019-01-24T02:06:55.276Z,63.43
2019-01-24T02:09:24.779Z,62.90
2019-01-24T02:12:00.128Z,62.53
2019-01-24T02:14:29.657Z,64.83
2019-01-24T02:17:05.528Z,62.23
2019-01-24T02:19:34.957Z,65.93
2019-01-24T02:22:04.481Z,62.03
2019-01-24T02:24:53.301Z,63.73
2019-01-24T02:27:25.374Z,60.70
2019-01-24T02:29:54.821Z,63.30
2019-01-24T02:32:24.314Z,65.57
2019-01-24T02:34:56.677Z,60.73
2019-01-24T02:37:39.154Z,57.23
2019-01-24T02:40:15.519Z,55.30
2019-01-24T02:42:45.009Z,55.10
2019-01-24T02:45:16.996Z,59.77
2019-01-24T02:47:46.427Z,59.77
2019-01-24T02:50:32.222Z,60.43
2019-01-24T02:53:16.812Z,62.87
2019-01-24T02:55:46.549Z,62.37
2019-01-24T02:58:18.777Z,65.17
2019-01-24T03:00:48.307Z,61.83
2019-01-24T03:03:17.815Z,63.77
2019-01-24T03:05:47.244Z,64.13
2019-01-24T03:08:16.770Z,66.33
2019-01-24T03:10:50.503Z,62.23
2019-01-24T03:13:19.984Z,60.97
2019-01-24T03:15:55.465Z,63.97
2019-01-24T03:18:24.963Z,65.80
2019-01-24T03:20:54.379Z,63.80
2019-01-24T03:23:36.363Z,64.83
2019-01-24T03:26:11.623Z,67.40
2019-01-24T03:28:41.117Z,66.70
2019-01-24T03:31:13.350Z,65.33
2019-01-24T03:33:48.733Z,65.33
2019-01-24T03:36:37.532Z,64.97
2019-01-24T03:39:09.380Z,65.87
2019-01-24T03:42:16.298Z,66.73
2019-01-24T03:44:45.749Z,70.57
2019-01-24T03:47:15.197Z,69.50
2019-01-24T03:49:57.443Z,71.03
2019-01-24T03:52:26.865Z,62.63
2019-01-24T03:54:56.283Z,63.07
2019-01-24T03:57:29.208Z,69.00
2019-01-24T03:59:58.739Z,79.27
2019-01-24T04:02:41.255Z,69.10
2019-01-24T04:05:11.987Z,66.57
2019-01-24T04:07:41.502Z,63.30
2019-01-24T04:10:16.021Z,62.50
2019-01-24T04:12:45.447Z,70.30
2019-01-24T04:15:17.227Z,74.27
2019-01-24T04:17:46.646Z,70.87
2019-01-24T04:20:16.866Z,67.27
2019-01-24T04:22:46.331Z,72.27
2019-01-24T04:25:18.402Z,72.17
2019-01-24T04:27:49.467Z,71.60
2019-01-24T04:30:20.883Z,70.53
2019-01-24T04:32:50.435Z,73.70
2019-01-24T04:35:29.253Z,67.73
2019-01-24T04:37:58.666Z,68.33
2019-01-24T04:40:28.099Z,66.57
2019-01-24T04:43:21.058Z,68.70
2019-01-24T04:45:50.590Z,64.30
2019-01-24T04:48:20.004Z,71.30
2019-01-24T04:50:49.433Z,69.97
2019-01-24T04:53:26.551Z,70.70
2019-01-24T04:55:56.200Z,63.87
2019-01-24T04:58:30.848Z,68.00
2019-01-24T05:01:00.437Z,73.03
2019-01-24T05:03:32.935Z,71.70
2019-01-24T05:06:20.922Z,69.40
2019-01-24T05:09:04.281Z,70.37
2019-01-24T05:11:36.110Z,77.47
2019-01-24T05:14:05.539Z,76.70
2019-01-24T05:16:34.935Z,77.63
2019-01-24T05:19:04.444Z,75.17
2019-01-24T05:21:33.873Z,76.47
2019-01-24T05:24:06.510Z,75.70
2019-01-24T05:26:35.934Z,71.07
2019-01-24T05:29:05.457Z,75.10
2019-01-24T05:31:34.885Z,70.43
2019-01-24T05:34:04.318Z,76.07
2019-01-24T05:36:36.505Z,75.47
2019-01-24T05:39:11.972Z,78.67
2019-01-24T05:41:43.989Z,73.60
2019-01-24T05:44:17.948Z,72.33
2019-01-24T05:46:47.515Z,70.03
2019-01-24T05:49:16.974Z,72.30
2019-01-24T05:51:46.563Z,67.37
2019-01-24T05:54:16.129Z,67.33
2019-01-24T05:56:45.584Z,69.90
2019-01-24T05:59:16.369Z,76.70
2019-01-24T06:01:46.444Z,72.87
2019-01-24T06:04:15.904Z,67.73
2019-01-24T06:06:45.312Z,71.97
2019-01-24T06:09:14.744Z,70.73
2019-01-24T06:11:44.259Z,79.93
2019-01-24T06:14:16.896Z,72.83
2019-01-24T06:16:46.336Z,69.83
2019-01-24T06:19:15.755Z,80.70
2019-01-24T06:21:45.190Z,74.60
2019-01-24T06:24:14.811Z,69.50
2019-01-24T06:26:44.219Z,72.97
2019-01-24T06:29:20.991Z,64.97
2019-01-24T06:31:50.396Z,71.57
2019-01-24T06:34:21.445Z,76.93
2019-01-24T06:36:51.872Z,71.50
2019-01-24T06:39:21.330Z,77.57
2019-01-24T06:41:50.780Z,85.77
2019-01-24T06:44:20.277Z,83.37
2019-01-24T06:46:49.755Z,82.33
2019-01-24T06:49:19.172Z,83.27
2019-01-24T06:51:50.223Z,84.43
2019-01-24T06:54:37.834Z,79.60
2019-01-24T06:57:07.255Z,81.77
2019-01-24T06:59:44.249Z,86.30
2019-01-24T07:02:19.447Z,80.20
2019-01-24T07:05:07.553Z,79.00
2019-01-24T07:07:50.543Z,78.17
2019-01-24T07:10:21.920Z,84.83
2019-01-24T07:12:51.358Z,80.70
2019-01-24T07:15:22.054Z,81.63
2019-01-24T07:17:51.467Z,76.37
2019-01-24T07:20:21.292Z,86.57
2019-01-24T07:22:50.840Z,76.73
2019-01-24T07:25:22.849Z,84.70
2019-01-24T07:27:52.649Z,79.33
2019-01-24T07:30:29.775Z,75.90
2019-01-24T07:32:59.778Z,76.13
2019-01-24T07:35:29.207Z,77.87
2019-01-24T07:37:58.631Z,78.60
2019-01-24T07:40:28.031Z,77.33
2019-01-24T07:42:57.493Z,75.63
2019-01-24T07:45:31.401Z,78.37
2019-01-24T07:48:00.958Z,80.80
2019-01-24T07:50:30.363Z,80.80
2019-01-24T07:53:14.816Z,80.53
2019-01-24T07:55:44.220Z,78.83
2019-01-24T07:58:19.368Z,77.33
2019-01-24T08:00:49.953Z,76.47
2019-01-24T08:03:19.395Z,74.37
2019-01-24T08:05:50.438Z,78.30
2019-01-24T08:08:19.940Z,73.30
2019-01-24T08:10:56.711Z,73.97
2019-01-24T08:13:26.178Z,76.70
2019-01-24T08:15:55.677Z,76.83
2019-01-24T08:18:28.205Z,75.33
2019-01-24T08:20:57.624Z,73.23
2019-01-24T08:23:27.061Z,74.37
2019-01-24T08:25:56.580Z,71.93
2019-01-24T08:28:26.129Z,71.67
2019-01-24T08:31:07.677Z,71.17
2019-01-24T08:33:37.232Z,74.60
2019-01-24T08:36:15.834Z,76.63
2019-01-24T08:39:04.701Z,77.63
2019-01-24T08:41:34.145Z,80.43
2019-01-24T08:44:15.439Z,83.27
2019-01-24T08:47:02.809Z,90.13
2019-01-24T08:49:33.914Z,95.17
2019-01-24T08:52:06.023Z,91.27
2019-01-24T08:54:35.569Z,89.43
2019-01-24T08:57:05.040Z,94.60
2019-01-24T08:59:43.478Z,104.23
2019-01-24T09:02:14.086Z,101.50
2019-01-24T09:04:54.044Z,111.77
2019-01-24T09:07:31.427Z,106.70
2019-01-24T09:10:00.881Z,104.40
2019-01-24T09:12:33.269Z,92.47
2019-01-24T09:15:10.900Z,100.93
2019-01-24T09:17:40.316Z,101.90
2019-01-24T09:20:12.595Z,94.37
2019-01-24T09:22:44.436Z,101.17
2019-01-24T09:25:21.321Z,92.03
2019-01-24T09:27:50.858Z,91.40
2019-01-24T09:30:29.639Z,86.83
2019-01-24T09:33:17.287Z,85.07
2019-01-24T09:35:46.741Z,86.37
2019-01-24T09:38:16.214Z,83.07
2019-01-24T09:40:45.721Z,86.60
2019-01-24T09:43:15.188Z,86.93
2019-01-24T09:45:44.607Z,84.90
2019-01-24T09:48:16.919Z,89.07
2019-01-24T09:50:46.425Z,83.77
2019-01-24T09:53:18.932Z,80.73
2019-01-24T09:55:48.353Z,81.43
2019-01-24T09:58:17.776Z,83.07
2019-01-24T10:00:47.198Z,82.77
2019-01-24T10:03:16.876Z,84.77
2019-01-24T10:05:46.396Z,80.27
2019-01-24T10:08:15.903Z,84.77
2019-01-24T10:10:45.316Z,81.93
2019-01-24T10:13:15.190Z,84.73
2019-01-24T10:15:44.629Z,85.27
2019-01-24T10:18:14.715Z,87.47
2019-01-24T10:20:44.219Z,81.93
2019-01-24T10:23:18.219Z,85.40
2019-01-24T10:25:56.794Z,80.07
2019-01-24T10:28:26.256Z,85.80
2019-01-24T10:30:55.801Z,85.30
2019-01-24T10:33:25.258Z,84.20
2019-01-24T10:35:57.493Z,88.10
2019-01-24T10:38:26.982Z,89.97
2019-01-24T10:40:56.434Z,86.10
2019-01-24T10:43:25.840Z,87.27
2019-01-24T10:45:55.317Z,86.97
2019-01-24T10:48:38.077Z,89.70
2019-01-24T10:51:07.524Z,81.47
2019-01-24T10:53:36.934Z,85.63
2019-01-24T10:56:06.388Z,83.17
2019-01-24T10:58:35.789Z,85.77
2019-01-24T11:01:05.421Z,82.00
2019-01-24T11:03:35.105Z,86.37
2019-01-24T11:06:04.533Z,83.83
2019-01-24T11:08:34.063Z,89.27
2019-01-24T11:11:09.712Z,90.17
2019-01-24T11:13:39.329Z,91.77
2019-01-24T11:16:11.490Z,93.03
2019-01-24T11:18:40.938Z,98.77
2019-01-24T11:21:10.380Z,95.17
2019-01-24T11:23:42.588Z,92.37
2019-01-24T11:26:12.008Z,102.33
2019-01-24T11:28:41.433Z,100.57
2019-01-24T11:31:10.929Z,101.80
2019-01-24T11:33:40.446Z,100.40
2019-01-24T11:36:09.955Z,102.57
2019-01-24T11:38:39.372Z,107.63
2019-01-24T11:41:08.835Z,97.83
2019-01-24T11:43:38.282Z,100.47
2019-01-24T11:46:07.748Z,99.40
2019-01-24T11:48:37.166Z,101.07
2019-01-24T11:51:06.581Z,104.50
2019-01-24T11:53:36.009Z,94.77
2019-01-24T11:56:06.355Z,101.97
2019-01-24T11:58:49.507Z,95.93
2019-01-24T12:01:19.989Z,97.47
2019-01-24T12:03:56.997Z,92.77
2019-01-24T12:06:26.406Z,92.53
2019-01-24T12:08:55.832Z,96.57
2019-01-24T12:11:25.327Z,96.30
2019-01-24T12:13:54.839Z,95.30
2019-01-24T12:16:24.560Z,93.40
2019-01-24T12:18:54.001Z,97.20
2019-01-24T12:21:28.064Z,92.73
2019-01-24T12:23:57.477Z,91.57
2019-01-24T12:26:26.974Z,92.37
2019-01-24T12:28:56.409Z,95.23
2019-01-24T12:31:25.987Z,84.03
2019-01-24T12:34:14.795Z,91.93
2019-01-24T12:37:11.138Z,97.53
2019-01-24T12:39:36.518Z,89.23
2019-01-24T12:42:07.063Z,92.60
2019-01-24T12:44:36.590Z,98.00
2019-01-24T12:47:06.147Z,90.63
2019-01-24T12:49:35.658Z,98.07
2019-01-24T12:52:18.595Z,95.13
2019-01-24T12:54:50.684Z,93.80
2019-01-24T12:57:20.143Z,91.10
2019-01-24T12:59:57.020Z,89.30
2019-01-24T13:02:26.467Z,89.73
2019-01-24T13:04:57.974Z,91.63
2019-01-24T13:07:30.801Z,88.80
2019-01-24T13:10:00.243Z,98.30
2019-01-24T13:12:30.198Z,85.40
2019-01-24T13:14:59.607Z,92.43
2019-01-24T13:17:29.183Z,92.73
2019-01-24T13:19:58.745Z,84.23
2019-01-24T13:22:28.245Z,88.17
2019-01-24T13:24:57.652Z,93.67
2019-01-24T13:27:27.212Z,89.30
2019-01-24T13:29:56.639Z,91.87
2019-01-24T13:32:26.079Z,91.23
2019-01-24T13:34:55.545Z,91.00
2019-01-24T13:37:25.912Z,91.47
2019-01-24T13:40:16.757Z,86.70
2019-01-24T13:42:46.276Z,86.57
2019-01-24T13:45:19.848Z,90.30
2019-01-24T13:47:49.296Z,89.13
2019-01-24T13:50:19.062Z,87.87
2019-01-24T13:52:48.542Z,81.73
2019-01-24T13:55:17.974Z,89.47
2019-01-24T13:57:51.680Z,91.10
2019-01-24T14:00:37.079Z,85.67
2019-01-24T14:03:09.961Z,95.27
2019-01-24T14:05:39.685Z,92.27
2019-01-24T14:08:09.154Z,85.03
2019-01-24T14:10:38.662Z,90.30
2019-01-24T14:13:08.140Z,89.77
2019-01-24T14:15:37.570Z,88.10
2019-01-24T14:18:13.267Z,93.03
2019-01-24T14:20:45.556Z,86.93
2019-01-24T14:23:15.041Z,94.77
2019-01-24T14:25:44.517Z,94.07
2019-01-24T14:28:13.940Z,92.53
2019-01-24T14:30:48.369Z,90.43
2019-01-24T14:33:17.836Z,96.53
2019-01-24T14:35:47.374Z,90.93
2019-01-24T14:38:16.813Z,89.53
2019-01-24T14:40:46.494Z,84.77
2019-01-24T14:43:18.999Z,92.20
2019-01-24T14:45:49.784Z,82.70
2019-01-24T14:48:27.296Z,90.20
2019-01-24T14:50:56.783Z,91.57
2019-01-24T14:53:26.264Z,94.47
2019-01-24T14:55:55.673Z,88.07
2019-01-24T14:58:25.116Z,91.63
2019-01-24T15:00:57.767Z,93.87
2019-01-24T15:03:27.220Z,84.70
2019-01-24T15:05:56.911Z,89.50
2019-01-24T15:08:26.317Z,90.80
2019-01-24T15:10:55.775Z,88.83
2019-01-24T15:13:25.203Z,88.63
2019-01-24T15:15:54.649Z,88.67
2019-01-24T15:18:32.176Z,92.53
2019-01-24T15:21:04.446Z,86.73
2019-01-24T15:23:43.023Z,87.67
2019-01-24T15:26:15.141Z,85.23
2019-01-24T15:28:59.969Z,95.27
2019-01-24T15:31:40.468Z,88.27
2019-01-24T15:34:09.928Z,86.70
2019-01-24T15:36:39.327Z,83.23
2019-01-24T15:39:08.745Z,94.80
2019-01-24T15:41:41.039Z,92.73
2019-01-24T15:44:10.512Z,87.20
2019-01-24T15:46:39.975Z,87.00
2019-01-24T15:49:09.416Z,83.33
2019-01-24T15:51:41.545Z,87.43
2019-01-24T15:54:10.990Z,92.30
2019-01-24T15:56:40.916Z,86.50
2019-01-24T15:59:13.366Z,85.53
2019-01-24T16:01:48.839Z,90.33
2019-01-24T16:04:19.923Z,90.17
2019-01-24T16:06:57.884Z,86.60
2019-01-24T16:09:46.716Z,85.67
2019-01-24T16:12:16.154Z,89.53
2019-01-24T16:14:45.559Z,83.70
2019-01-24T16:17:15.077Z,82.87
2019-01-24T16:19:44.506Z,88.10
2019-01-24T16:22:13.935Z,80.63
2019-01-24T16:24:46.072Z,81.23
2019-01-24T16:27:28.442Z,75.27
2019-01-24T16:29:57.883Z,91.17
2019-01-24T16:32:27.411Z,75.83
2019-01-24T16:34:57.126Z,83.07
2019-01-24T16:37:26.572Z,82.27
2019-01-24T16:39:56.093Z,83.40
2019-01-24T16:42:28.211Z,82.37
2019-01-24T16:45:11.794Z,81.40
2019-01-24T16:47:45.701Z,72.83
2019-01-24T16:50:17.365Z,80.70
2019-01-24T16:53:00.789Z,81.93
2019-01-24T16:55:30.201Z,84.67
2019-01-24T16:58:08.862Z,78.83
2019-01-24T17:00:41.941Z,85.50
2019-01-24T17:03:11.409Z,87.00
2019-01-24T17:05:40.900Z,85.30
2019-01-24T17:08:16.549Z,77.37
2019-01-24T17:10:58.051Z,77.40
2019-01-24T17:13:46.860Z,81.17
2019-01-24T17:16:21.210Z,84.30
2019-01-24T17:18:54.419Z,74.17
2019-01-24T17:21:28.448Z,79.27
2019-01-24T17:23:58.862Z,79.07
2019-01-24T17:26:28.321Z,75.13
2019-01-24T17:28:57.739Z,81.27
2019-01-24T17:31:28.230Z,79.33
2019-01-24T17:33:57.817Z,81.53
2019-01-24T17:36:33.681Z,76.33
2019-01-24T17:39:25.296Z,78.83
2019-01-24T17:41:54.841Z,78.40
2019-01-24T17:44:24.265Z,80.67
2019-01-24T17:46:56.573Z,74.87
2019-01-24T17:49:25.980Z,80.43
2019-01-24T17:51:58.161Z,74.53
2019-01-24T17:54:27.796Z,77.13
2019-01-24T17:56:57.302Z,81.37
2019-01-24T17:59:26.766Z,78.67
2019-01-24T18:01:56.172Z,82.83
2019-01-24T18:04:25.597Z,79.23
2019-01-24T18:06:55.489Z,81.00
2019-01-24T18:09:25.097Z,75.80
2019-01-24T18:12:07.820Z,73.70
2019-01-24T18:14:40.290Z,79.97
2019-01-24T18:17:11.336Z,81.77
2019-01-24T18:19:40.786Z,78.20
2019-01-24T18:22:10.195Z,80.97
2019-01-24T18:24:39.634Z,81.77
2019-01-24T18:27:09.053Z,79.63
2019-01-24T18:29:38.569Z,80.47
2019-01-24T18:32:08.097Z,80.37
2019-01-24T18:34:37.520Z,76.87
2019-01-24T18:37:06.997Z,81.90
2019-01-24T18:39:36.413Z,79.63
2019-01-24T18:42:06.001Z,81.23
2019-01-24T18:44:35.470Z,81.47
2019-01-24T18:47:07.918Z,84.30
2019-01-24T18:50:15.016Z,78.27
2019-01-24T18:52:44.540Z,79.10
2019-01-24T18:55:13.973Z,82.30
2019-01-24T18:57:43.421Z,80.20
2019-01-24T19:00:28.259Z,79.87
2019-01-24T19:02:57.687Z,78.53
2019-01-24T19:05:27.117Z,83.13
2019-01-24T19:07:56.633Z,83.20
2019-01-24T19:10:27.312Z,87.03
2019-01-24T19:12:56.812Z,81.17
2019-01-24T19:15:26.236Z,85.27
2019-01-24T19:17:55.668Z,82.67
2019-01-24T19:20:25.086Z,84.23
2019-01-24T19:22:54.518Z,81.20
2019-01-24T19:25:24.044Z,83.90
2019-01-24T19:27:53.475Z,93.63
2019-01-24T19:30:30.922Z,83.40
2019-01-24T19:33:00.439Z,81.07
2019-01-24T19:35:29.836Z,80.23
2019-01-24T19:38:05.077Z,86.00
2019-01-24T19:40:34.604Z,85.23
2019-01-24T19:43:04.041Z,85.13
2019-01-24T19:45:36.131Z,87.03
2019-01-24T19:48:05.788Z,83.10
2019-01-24T19:50:35.269Z,87.83
2019-01-24T19:53:04.847Z,84.27
2019-01-24T19:55:40.450Z,78.53
2019-01-24T19:58:47.601Z,78.23
2019-01-24T20:01:17.119Z,83.67
2019-01-24T20:03:49.201Z,82.83
2019-01-24T20:06:26.285Z,82.37
2019-01-24T20:09:00.149Z,87.47
2019-01-24T20:11:26.925Z,90.30
2019-01-24T20:13:56.332Z,88.70
2019-01-24T20:16:25.770Z,89.60
2019-01-24T20:19:07.267Z,79.03
2019-01-24T20:21:59.876Z,85.87
2019-01-24T20:24:54.874Z,86.60
2019-01-24T20:27:27.158Z,88.00
2019-01-24T20:29:56.650Z,85.50
2019-01-24T20:32:41.052Z,83.87
2019-01-24T20:35:16.687Z,94.57
2019-01-24T20:37:46.161Z,86.27
2019-01-24T20:40:15.673Z,95.27
2019-01-24T20:43:03.508Z,92.33
2019-01-24T20:45:51.210Z,90.07
2019-01-24T20:48:25.190Z,93.00
2019-01-24T20:51:00.396Z,85.53
2019-01-24T20:53:29.871Z,89.80
2019-01-24T20:56:01.041Z,86.67
2019-01-24T20:58:30.472Z,89.97
2019-01-24T21:01:12.041Z,96.63
2019-01-24T21:03:56.697Z,93.33
2019-01-24T21:06:26.160Z,93.07
2019-01-24T21:08:55.584Z,92.40
2019-01-24T21:11:25.033Z,94.63
2019-01-24T21:13:54.782Z,86.33
2019-01-24T21:16:26.909Z,96.87
2019-01-24T21:18:56.377Z,98.17
2019-01-24T21:21:25.805Z,94.90
2019-01-24T21:23:55.224Z,93.73
2019-01-24T21:26:27.521Z,98.20
2019-01-24T21:28:57.202Z,93.77
2019-01-24T21:31:26.604Z,90.47
2019-01-24T21:33:56.142Z,95.57
2019-01-24T21:36:25.737Z,91.40
2019-01-24T21:39:11.944Z,92.90
2019-01-24T21:41:47.012Z,99.47
2019-01-24T21:44:21.303Z,99.50
2019-01-24T21:46:50.860Z,102.50
2019-01-24T21:49:20.297Z,96.10
2019-01-24T21:52:09.144Z,99.27
2019-01-24T21:54:39.919Z,94.30
2019-01-24T21:57:09.353Z,97.03
2019-01-24T21:59:41.572Z,94.83
2019-01-24T22:02:11.065Z,97.07
2019-01-24T22:04:40.571Z,93.30
2019-01-24T22:07:15.716Z,97.93
2019-01-24T22:09:46.814Z,100.70
2019-01-24T22:12:16.252Z,99.23
2019-01-24T22:14:51.550Z,102.33
2019-01-24T22:17:23.733Z,92.50
2019-01-24T22:19:55.797Z,90.93
2019-01-24T22:22:43.521Z,95.30
2019-01-24T22:25:19.058Z,95.73
2019-01-24T22:27:48.658Z,97.00
2019-01-24T22:30:21.558Z,99.83
2019-01-24T22:32:53.628Z,93.57
2019-01-24T22:35:29.977Z,92.57
2019-01-24T22:37:59.415Z,98.13
2019-01-24T22:40:28.855Z,100.43
2019-01-24T22:42:58.262Z,94.60
2019-01-24T22:45:27.959Z,93.23
2019-01-24T22:47:57.368Z,92.30
2019-01-24T22:50:26.776Z,100.43
2019-01-24T22:52:56.238Z,98.73
2019-01-24T22:55:25.726Z,87.70
2019-01-24T22:57:55.171Z,97.50
2019-01-24T23:00:35.956Z,92.17
2019-01-24T23:03:05.508Z,100.50
2019-01-24T23:05:35.038Z,98.37
2019-01-24T23:08:17.077Z,99.53
2019-01-24T23:11:00.447Z,96.33
2019-01-24T23:13:49.265Z,92.90
2019-01-24T23:16:22.455Z,99.40
2019-01-24T23:19:07.057Z,98.03
2019-01-24T23:21:42.156Z,93.80
2019-01-24T23:24:11.629Z,100.67
2019-01-24T23:26:41.075Z,91.20
2019-01-24T23:29:13.437Z,91.57
2019-01-24T23:31:45.679Z,96.23
2019-01-24T23:34:15.119Z,97.00
2019-01-24T23:36:44.605Z,95.23
2019-01-24T23:39:32.458Z,102.63
2019-01-24T23:42:18.838Z,92.20
2019-01-24T23:44:48.297Z,93.10
2019-01-24T23:47:17.779Z,94.13
2019-01-24T23:49:47.230Z,92.07
2019-01-24T23:52:16.706Z,105.10
2019-01-24T23:55:05.723Z,95.03
2019-01-24T23:57:53.381Z,105.73
